createdAt,value
2023-01-17T00:02:22.808Z,74.58
2023-01-17T00:05:10.166Z,74.68
2023-01-17T00:07:56.776Z,74.90
2023-01-17T00:10:27.583Z,75.14
2023-01-17T00:13:00.401Z,75.18
2023-01-17T00:15:31.253Z,75.07
2023-01-17T00:18:00.049Z,75.40
2023-01-17T00:20:49.204Z,75.37
2023-01-17T00:23:42.103Z,75.49
2023-01-17T00:26:15.247Z,75.55
2023-01-17T00:28:44.152Z,75.62
2023-01-17T00:31:15.702Z,75.74
2023-01-17T00:33:44.198Z,75.83
2023-01-17T00:36:13.305Z,75.92
2023-01-17T00:38:42.316Z,76.02
2023-01-17T00:41:13.880Z,76.17
2023-01-17T00:44:02.546Z,76.18
2023-01-17T00:46:49.255Z,76.12
2023-01-17T00:49:35.911Z,75.98
2023-01-17T00:52:23.567Z,75.91
2023-01-17T00:55:10.889Z,75.85
2023-01-17T00:57:57.613Z,75.81
2023-01-17T01:00:44.639Z,75.85
2023-01-17T01:03:32.450Z,75.97
2023-01-17T01:06:23.471Z,76.08
2023-01-17T01:09:10.483Z,75.90
2023-01-17T01:11:56.981Z,75.87
2023-01-17T01:14:44.720Z,75.95
2023-01-17T01:17:31.232Z,75.92
2023-01-17T01:20:17.732Z,75.97
2023-01-17T01:23:04.339Z,75.90
2023-01-17T01:25:51.161Z,75.90
2023-01-17T01:28:38.175Z,75.81
2023-01-17T01:31:24.664Z,75.62
2023-01-17T01:33:53.836Z,75.42
2023-01-17T01:36:22.365Z,75.31
2023-01-17T01:38:50.761Z,75.27
2023-01-17T01:41:19.141Z,75.23
2023-01-17T01:43:52.727Z,75.06
2023-01-17T01:46:31.878Z,74.85
2023-01-17T01:49:09.067Z,74.72
2023-01-17T01:51:49.929Z,74.56
2023-01-17T01:54:23.687Z,74.52
2023-01-17T01:56:54.682Z,74.49
2023-01-17T01:59:23.901Z,74.54
2023-01-17T02:01:55.991Z,74.59
2023-01-17T02:04:27.920Z,74.44
2023-01-17T02:07:03.373Z,74.31
2023-01-17T02:09:32.030Z,74.37
2023-01-17T02:12:00.635Z,74.47
2023-01-17T02:14:29.123Z,74.54
2023-01-17T02:17:24.655Z,74.41
2023-01-17T02:20:14.544Z,74.44
2023-01-17T02:22:51.625Z,74.34
2023-01-17T02:25:37.916Z,74.25
2023-01-17T02:28:12.127Z,74.15
2023-01-17T02:30:46.153Z,73.97
2023-01-17T02:33:25.187Z,73.88
2023-01-17T02:36:19.489Z,73.84
2023-01-17T02:39:23.193Z,73.63
2023-01-17T02:41:58.117Z,73.61
2023-01-17T02:44:26.598Z,73.50
2023-01-17T02:46:57.092Z,73.53
2023-01-17T02:49:30.522Z,73.35
2023-01-17T02:52:06.289Z,73.43
2023-01-17T02:54:49.928Z,73.24
2023-01-17T02:57:34.964Z,73.19
2023-01-17T03:00:28.016Z,72.99
2023-01-17T03:03:19.393Z,72.90
2023-01-17T03:06:11.901Z,72.71
2023-01-17T03:08:46.158Z,72.64
2023-01-17T03:11:14.910Z,72.54
2023-01-17T03:13:43.833Z,72.54
2023-01-17T03:16:21.303Z,72.52
2023-01-17T03:18:49.815Z,72.50
2023-01-17T03:21:18.198Z,72.30
2023-01-17T03:23:46.577Z,72.15
2023-01-17T03:26:15.268Z,72.09
2023-01-17T03:28:43.637Z,71.90
2023-01-17T03:31:20.116Z,71.72
2023-01-17T03:33:48.607Z,71.54
2023-01-17T03:36:16.864Z,71.48
2023-01-17T03:38:45.047Z,71.39
2023-01-17T03:41:13.330Z,71.22
2023-01-17T03:43:41.707Z,71.11
2023-01-17T03:46:36.934Z,70.91
2023-01-17T03:49:05.519Z,70.71
2023-01-17T03:51:33.785Z,70.46
2023-01-17T03:54:02.168Z,70.33
2023-01-17T03:56:30.558Z,70.23
2023-01-17T03:58:58.857Z,70.25
2023-01-17T04:01:27.263Z,70.13
2023-01-17T04:03:55.701Z,70.03
2023-01-17T04:06:23.966Z,70.14
2023-01-17T04:08:52.147Z,70.32
2023-01-17T04:11:20.702Z,70.42
2023-01-17T04:13:48.913Z,70.44
2023-01-17T04:16:18.594Z,70.63
2023-01-17T04:18:46.797Z,70.66
2023-01-17T04:21:14.882Z,70.85
2023-01-17T04:23:42.954Z,70.83
2023-01-17T04:26:12.162Z,70.76
2023-01-17T04:28:49.765Z,70.89
2023-01-17T04:31:18.165Z,70.94
2023-01-17T04:33:46.425Z,71.04
2023-01-17T04:36:14.493Z,70.95
2023-01-17T04:38:42.821Z,71.02
2023-01-17T04:41:11.040Z,70.99
2023-01-17T04:43:39.217Z,70.91
2023-01-17T04:46:10.278Z,70.99
2023-01-17T04:48:38.753Z,71.11
2023-01-17T04:51:07.458Z,71.00
2023-01-17T04:53:36.033Z,71.07
2023-01-17T04:56:04.541Z,71.01
2023-01-17T04:58:33.553Z,71.14
2023-01-17T05:01:07.301Z,71.26
2023-01-17T05:03:36.213Z,71.23
2023-01-17T05:06:05.001Z,71.21
2023-01-17T05:08:33.281Z,71.06
2023-01-17T05:11:01.388Z,71.03
2023-01-17T05:13:29.832Z,71.03
2023-01-17T05:15:58.590Z,70.93
2023-01-17T05:18:27.005Z,70.75
2023-01-17T05:20:54.986Z,70.59
2023-01-17T05:23:23.162Z,70.58
2023-01-17T05:25:51.547Z,70.46
2023-01-17T05:28:19.861Z,70.29
2023-01-17T05:30:48.097Z,70.21
2023-01-17T05:33:16.783Z,70.04
2023-01-17T05:35:45.201Z,69.86
2023-01-17T05:38:13.457Z,69.75
2023-01-17T05:40:42.150Z,69.35
2023-01-17T05:43:10.731Z,69.35
2023-01-17T05:45:39.411Z,69.10
2023-01-17T05:48:08.204Z,68.86
2023-01-17T05:50:38.331Z,68.57
2023-01-17T05:53:09.574Z,68.40
2023-01-17T05:55:39.442Z,68.22
2023-01-17T05:58:13.089Z,68.11
2023-01-17T06:00:42.076Z,68.11
2023-01-17T06:03:11.605Z,68.07
2023-01-17T06:05:41.130Z,68.08
2023-01-17T06:08:11.125Z,68.07
2023-01-17T06:10:39.765Z,68.03
2023-01-17T06:13:12.728Z,67.98
2023-01-17T06:15:41.343Z,68.03
2023-01-17T06:18:14.321Z,68.22
2023-01-17T06:20:42.837Z,68.00
2023-01-17T06:23:13.622Z,67.80
2023-01-17T06:25:46.669Z,67.70
2023-01-17T06:28:18.263Z,67.52
2023-01-17T06:30:46.895Z,67.11
2023-01-17T06:33:16.517Z,66.97
2023-01-17T06:35:52.246Z,66.67
2023-01-17T06:38:21.357Z,66.44
2023-01-17T06:40:49.622Z,66.32
2023-01-17T06:43:17.911Z,66.21
2023-01-17T06:45:46.582Z,66.07
2023-01-17T06:48:15.053Z,65.97
2023-01-17T06:50:44.030Z,65.90
2023-01-17T06:53:12.201Z,65.76
2023-01-17T06:55:40.440Z,65.71
2023-01-17T06:58:09.802Z,65.54
2023-01-17T07:00:40.578Z,65.57
2023-01-17T07:03:19.278Z,65.46
2023-01-17T07:05:48.301Z,65.29
2023-01-17T07:08:17.842Z,65.33
2023-01-17T07:10:49.515Z,65.16
2023-01-17T07:13:17.979Z,65.15
2023-01-17T07:15:46.254Z,65.31
2023-01-17T07:18:14.849Z,65.27
2023-01-17T07:20:44.091Z,65.20
2023-01-17T07:23:13.350Z,65.27
2023-01-17T07:25:42.122Z,65.36
2023-01-17T07:28:10.415Z,65.30
2023-01-17T07:30:38.673Z,65.31
2023-01-17T07:33:07.059Z,65.16
2023-01-17T07:35:37.207Z,65.12
2023-01-17T07:38:11.469Z,65.08
2023-01-17T07:40:42.374Z,64.96
2023-01-17T07:43:15.021Z,64.99
2023-01-17T07:45:44.346Z,64.97
2023-01-17T07:48:13.096Z,64.97
2023-01-17T07:50:41.789Z,65.04
2023-01-17T07:53:10.681Z,65.11
2023-01-17T07:55:39.057Z,65.21
2023-01-17T07:58:07.346Z,65.39
2023-01-17T08:00:35.713Z,65.45
2023-01-17T08:03:04.012Z,65.42
2023-01-17T08:05:32.368Z,65.28
2023-01-17T08:08:00.871Z,65.05
2023-01-17T08:10:29.469Z,65.01
2023-01-17T08:12:57.905Z,65.08
2023-01-17T08:15:26.902Z,64.89
2023-01-17T08:17:57.748Z,64.63
2023-01-17T08:20:27.961Z,64.23
2023-01-17T08:22:57.169Z,63.76
2023-01-17T08:25:26.495Z,63.50
2023-01-17T08:27:58.340Z,63.34
2023-01-17T08:30:28.244Z,63.14
2023-01-17T08:32:56.921Z,62.89
2023-01-17T08:35:25.324Z,62.67
2023-01-17T08:37:56.482Z,62.35
2023-01-17T08:40:25.349Z,62.29
2023-01-17T08:42:58.348Z,62.20
2023-01-17T08:45:29.252Z,62.04
2023-01-17T08:48:00.293Z,61.85
2023-01-17T08:50:30.316Z,61.75
2023-01-17T08:53:01.332Z,61.84
2023-01-17T08:55:41.216Z,61.37
2023-01-17T08:58:10.399Z,61.04
2023-01-17T09:00:40.208Z,61.23
2023-01-17T09:03:14.691Z,61.33
2023-01-17T09:05:43.232Z,61.26
2023-01-17T09:08:13.035Z,61.26
2023-01-17T09:10:41.431Z,60.99
2023-01-17T09:13:09.999Z,60.76
2023-01-17T09:15:38.385Z,60.48
2023-01-17T09:18:06.877Z,60.65
2023-01-17T09:20:35.245Z,60.43
2023-01-17T09:23:04.109Z,59.77
2023-01-17T09:25:32.325Z,59.22
2023-01-17T09:28:03.136Z,59.60
2023-01-17T09:30:32.013Z,59.24
2023-01-17T09:33:00.631Z,58.09
2023-01-17T09:35:29.108Z,56.84
2023-01-17T09:38:00.947Z,56.97
2023-01-17T09:40:30.258Z,56.15
2023-01-17T09:43:04.121Z,56.04
2023-01-17T09:45:34.517Z,55.54
2023-01-17T09:48:10.488Z,55.11
2023-01-17T09:50:41.985Z,54.79
2023-01-17T09:53:18.881Z,54.83
2023-01-17T09:56:15.212Z,54.29
2023-01-17T09:59:08.676Z,53.94
2023-01-17T10:02:10.875Z,54.74
2023-01-17T10:04:42.509Z,54.69
2023-01-17T10:07:47.733Z,54.65
2023-01-17T10:10:42.648Z,54.45
2023-01-17T10:13:52.913Z,54.26
2023-01-17T10:16:55.580Z,54.22
2023-01-17T10:19:54.900Z,54.69
2023-01-17T10:22:35.337Z,54.68
2023-01-17T10:25:26.261Z,54.94
2023-01-17T10:27:54.537Z,54.67
2023-01-17T10:30:34.615Z,53.85
2023-01-17T10:33:17.124Z,53.37
2023-01-17T10:35:57.594Z,53.84
2023-01-17T10:38:35.057Z,54.08
2023-01-17T10:41:38.364Z,53.37
2023-01-17T10:44:36.020Z,53.59
2023-01-17T10:47:23.595Z,54.23
2023-01-17T10:49:54.076Z,54.48
2023-01-17T10:52:45.506Z,54.47
2023-01-17T10:55:50.118Z,55.15
2023-01-17T10:58:18.904Z,55.18
2023-01-17T11:00:52.369Z,54.75
2023-01-17T11:03:24.691Z,55.21
2023-01-17T11:06:19.920Z,55.23
2023-01-17T11:08:54.321Z,55.08
2023-01-17T11:11:34.394Z,55.02
2023-01-17T11:14:15.957Z,54.29
2023-01-17T11:17:09.847Z,53.73
2023-01-17T11:19:39.634Z,53.78
2023-01-17T11:22:15.296Z,53.79
2023-01-17T11:24:56.483Z,53.51
2023-01-17T11:27:34.177Z,53.85
2023-01-17T11:30:18.307Z,53.36
2023-01-17T11:32:55.595Z,53.46
2023-01-17T11:35:29.207Z,53.57
2023-01-17T11:38:16.530Z,53.21
2023-01-17T11:40:46.850Z,52.88
2023-01-17T11:43:30.595Z,52.57
2023-01-17T11:46:05.077Z,52.23
2023-01-17T11:48:39.445Z,52.31
2023-01-17T11:51:39.560Z,52.12
2023-01-17T11:54:21.061Z,51.80
2023-01-17T11:56:50.662Z,51.39
2023-01-17T11:59:36.157Z,51.58
2023-01-17T12:02:41.789Z,51.54
2023-01-17T12:05:41.631Z,51.73
2023-01-17T12:08:12.660Z,51.26
2023-01-17T12:10:46.863Z,50.95
2023-01-17T12:14:01.595Z,51.31
2023-01-17T12:16:57.565Z,51.56
2023-01-17T12:19:28.804Z,51.41
2023-01-17T12:22:15.416Z,51.55
2023-01-17T12:24:46.458Z,51.35
2023-01-17T12:27:29.184Z,51.10
2023-01-17T12:30:10.489Z,50.88
2023-01-17T12:32:38.718Z,49.87
2023-01-17T12:35:14.497Z,49.66
2023-01-17T12:37:46.027Z,49.81
2023-01-17T12:40:30.394Z,49.94
2023-01-17T12:43:11.976Z,49.92
2023-01-17T12:45:44.048Z,50.12
2023-01-17T12:48:18.005Z,50.06
2023-01-17T12:51:05.518Z,50.35
2023-01-17T12:53:47.066Z,50.75
2023-01-17T12:56:30.403Z,50.85
2023-01-17T12:59:17.811Z,51.47
2023-01-17T13:01:57.875Z,51.51
2023-01-17T13:04:42.008Z,51.42
2023-01-17T13:07:31.008Z,51.38
2023-01-17T13:10:26.300Z,51.26
2023-01-17T13:12:58.434Z,51.36
2023-01-17T13:15:31.047Z,51.16
2023-01-17T13:18:26.081Z,50.68
2023-01-17T13:21:16.329Z,49.95
2023-01-17T13:24:10.616Z,49.48
2023-01-17T13:26:51.227Z,49.47
2023-01-17T13:29:32.875Z,49.57
2023-01-17T13:32:35.345Z,49.78
2023-01-17T13:35:14.395Z,49.83
2023-01-17T13:38:18.181Z,49.88
2023-01-17T13:40:52.827Z,50.23
2023-01-17T13:43:40.740Z,50.62
2023-01-17T13:46:09.343Z,50.65
2023-01-17T13:48:41.100Z,51.02
2023-01-17T13:51:11.105Z,50.74
2023-01-17T13:53:39.407Z,50.91
2023-01-17T13:56:19.778Z,50.86
2023-01-17T13:58:54.471Z,50.66
2023-01-17T14:01:22.797Z,49.84
2023-01-17T14:03:51.822Z,49.39
2023-01-17T14:06:38.977Z,49.03
2023-01-17T14:09:13.499Z,48.77
2023-01-17T14:12:09.724Z,48.85
2023-01-17T14:14:41.887Z,48.86
2023-01-17T14:17:20.640Z,48.57
2023-01-17T14:19:53.500Z,48.33
2023-01-17T14:22:24.954Z,48.36
2023-01-17T14:24:59.485Z,48.23
2023-01-17T14:27:32.217Z,48.13
2023-01-17T14:30:05.786Z,48.02
2023-01-17T14:32:37.603Z,48.29
2023-01-17T14:35:06.908Z,49.06
2023-01-17T14:37:41.033Z,49.72
2023-01-17T14:40:26.635Z,50.43
2023-01-17T14:43:13.218Z,50.81
2023-01-17T14:45:43.788Z,50.73
2023-01-17T14:48:21.870Z,50.85
2023-01-17T14:50:54.386Z,50.99
2023-01-17T14:53:33.461Z,51.39
2023-01-17T14:56:12.795Z,51.35
2023-01-17T14:58:41.882Z,51.37
2023-01-17T15:01:17.990Z,51.57
2023-01-17T15:03:53.667Z,51.48
2023-01-17T15:06:27.523Z,51.64
2023-01-17T15:08:57.413Z,51.70
2023-01-17T15:11:33.788Z,51.57
2023-01-17T15:14:06.178Z,51.40
2023-01-17T15:16:38.294Z,51.55
2023-01-17T15:19:12.327Z,51.58
2023-01-17T15:21:44.436Z,51.62
2023-01-17T15:24:20.573Z,51.81
2023-01-17T15:26:50.624Z,52.06
2023-01-17T15:29:28.946Z,52.65
2023-01-17T15:32:03.659Z,52.95
2023-01-17T15:34:37.004Z,53.21
2023-01-17T15:37:29.454Z,53.31
2023-01-17T15:40:19.060Z,53.28
2023-01-17T15:42:58.540Z,53.38
2023-01-17T15:45:32.726Z,53.38
2023-01-17T15:48:34.660Z,53.51
2023-01-17T15:51:04.519Z,53.72
2023-01-17T15:53:39.954Z,54.01
2023-01-17T15:56:22.736Z,54.14
2023-01-17T15:58:51.292Z,54.33
2023-01-17T16:01:28.807Z,54.57
2023-01-17T16:03:58.979Z,54.81
2023-01-17T16:06:45.729Z,55.11
2023-01-17T16:09:24.372Z,55.42
2023-01-17T16:11:53.069Z,55.64
2023-01-17T16:14:22.474Z,55.77
2023-01-17T16:16:54.329Z,55.92
2023-01-17T16:19:24.130Z,55.99
2023-01-17T16:21:53.537Z,56.05
2023-01-17T16:24:21.965Z,56.12
2023-01-17T16:26:51.825Z,56.20
2023-01-17T16:29:20.789Z,56.14
2023-01-17T16:31:50.865Z,56.18
2023-01-17T16:34:19.938Z,56.13
2023-01-17T16:36:54.591Z,56.14
2023-01-17T16:39:25.148Z,56.19
2023-01-17T16:42:04.266Z,56.34
2023-01-17T16:44:33.828Z,56.50
2023-01-17T16:47:03.906Z,56.56
2023-01-17T16:49:38.785Z,56.70
2023-01-17T16:52:08.045Z,56.92
2023-01-17T16:54:36.849Z,57.26
2023-01-17T16:57:06.197Z,57.42
2023-01-17T16:59:49.810Z,57.61
2023-01-17T17:02:19.695Z,57.58
2023-01-17T17:04:48.562Z,57.57
2023-01-17T17:07:17.702Z,57.46
2023-01-17T17:09:47.101Z,57.36
2023-01-17T17:12:16.034Z,57.24
2023-01-17T17:14:44.842Z,57.18
2023-01-17T17:17:13.741Z,56.91
2023-01-17T17:19:42.422Z,56.68
2023-01-17T17:22:11.336Z,56.47
2023-01-17T17:24:40.505Z,56.70
2023-01-17T17:27:09.589Z,56.87
2023-01-17T17:29:43.831Z,56.93
2023-01-17T17:32:23.946Z,56.89
2023-01-17T17:34:54.791Z,56.96
2023-01-17T17:37:32.972Z,56.86
2023-01-17T17:40:08.575Z,57.00
2023-01-17T17:42:39.214Z,57.17
2023-01-17T17:45:09.804Z,57.06
2023-01-17T17:47:38.747Z,57.09
2023-01-17T17:50:08.205Z,57.31
2023-01-17T17:52:37.199Z,57.47
2023-01-17T17:55:06.926Z,57.41
2023-01-17T17:57:35.999Z,57.42
2023-01-17T18:00:05.821Z,57.65
2023-01-17T18:02:35.535Z,57.76
2023-01-17T18:05:04.687Z,57.91
2023-01-17T18:07:33.731Z,58.01
2023-01-17T18:10:03.045Z,58.32
2023-01-17T18:12:33.037Z,58.49
2023-01-17T18:15:01.396Z,58.53
2023-01-17T18:17:30.227Z,58.67
2023-01-17T18:20:00.460Z,58.62
2023-01-17T18:22:29.140Z,58.69
2023-01-17T18:24:58.162Z,58.80
2023-01-17T18:27:27.942Z,59.00
2023-01-17T18:29:56.865Z,59.18
2023-01-17T18:32:28.387Z,59.39
2023-01-17T18:34:56.982Z,59.45
2023-01-17T18:37:28.242Z,59.47
2023-01-17T18:39:57.782Z,59.54
2023-01-17T18:42:30.417Z,59.60
2023-01-17T18:44:59.110Z,59.68
2023-01-17T18:47:29.451Z,59.76
2023-01-17T18:49:58.368Z,59.70
2023-01-17T18:52:28.657Z,59.82
2023-01-17T18:54:58.299Z,59.75
2023-01-17T18:57:27.585Z,59.90
2023-01-17T18:59:57.723Z,59.83
2023-01-17T19:02:29.257Z,59.73
2023-01-17T19:04:59.472Z,59.79
2023-01-17T19:07:33.824Z,59.99
2023-01-17T19:10:03.453Z,60.14
2023-01-17T19:12:32.629Z,60.43
2023-01-17T19:15:05.150Z,60.61
2023-01-17T19:17:34.266Z,60.71
2023-01-17T19:20:07.260Z,60.50
2023-01-17T19:22:39.864Z,60.72
2023-01-17T19:25:09.522Z,60.83
2023-01-17T19:27:39.372Z,60.78
2023-01-17T19:30:09.209Z,60.73
2023-01-17T19:32:38.431Z,60.50
2023-01-17T19:35:09.410Z,60.64
2023-01-17T19:37:38.126Z,60.79
2023-01-17T19:40:09.190Z,60.47
2023-01-17T19:42:38.566Z,60.33
2023-01-17T19:45:16.797Z,60.39
2023-01-17T19:47:45.693Z,60.51
2023-01-17T19:50:15.215Z,60.44
2023-01-17T19:52:44.204Z,60.43
2023-01-17T19:55:15.043Z,60.23
2023-01-17T19:57:44.283Z,60.25
2023-01-17T20:00:20.191Z,61.15
2023-01-17T20:02:51.738Z,61.73
2023-01-17T20:05:20.848Z,61.86
2023-01-17T20:07:50.153Z,61.64
2023-01-17T20:10:19.458Z,61.61
2023-01-17T20:12:48.343Z,61.40
2023-01-17T20:15:17.282Z,61.36
2023-01-17T20:17:46.095Z,61.35
2023-01-17T20:20:16.155Z,61.43
2023-01-17T20:22:45.773Z,61.29
2023-01-17T20:25:15.281Z,61.52
2023-01-17T20:27:44.735Z,61.75
2023-01-17T20:30:20.583Z,61.80
2023-01-17T20:32:52.087Z,62.24
2023-01-17T20:35:21.507Z,62.32
2023-01-17T20:37:53.944Z,62.35
2023-01-17T20:40:23.066Z,62.33
2023-01-17T20:42:51.893Z,62.34
2023-01-17T20:45:21.583Z,62.28
2023-01-17T20:47:50.370Z,62.37
2023-01-17T20:50:19.122Z,62.55
2023-01-17T20:52:50.817Z,63.10
2023-01-17T20:55:19.744Z,63.86
2023-01-17T20:57:49.653Z,63.89
2023-01-17T21:00:19.054Z,63.65
2023-01-17T21:02:48.453Z,63.55
2023-01-17T21:05:17.966Z,63.36
2023-01-17T21:07:48.682Z,63.09
2023-01-17T21:10:18.535Z,63.21
2023-01-17T21:12:48.006Z,62.94
2023-01-17T21:15:17.824Z,62.92
2023-01-17T21:17:46.316Z,62.88
2023-01-17T21:20:15.203Z,62.72
2023-01-17T21:22:44.202Z,62.75
2023-01-17T21:25:15.044Z,62.92
2023-01-17T21:28:06.137Z,62.97
2023-01-17T21:31:23.409Z,63.27
2023-01-17T21:34:06.851Z,63.75
2023-01-17T21:36:39.093Z,63.90
2023-01-17T21:39:13.450Z,64.05
2023-01-17T21:41:48.855Z,64.26
2023-01-17T21:44:20.636Z,64.37
2023-01-17T21:46:55.140Z,64.23
2023-01-17T21:49:24.869Z,64.59
2023-01-17T21:51:53.963Z,64.67
2023-01-17T21:54:43.007Z,64.81
2023-01-17T21:57:31.671Z,64.53
2023-01-17T22:00:00.271Z,64.27
2023-01-17T22:02:29.054Z,64.03
2023-01-17T22:04:57.578Z,63.81
2023-01-17T22:07:29.305Z,63.68
2023-01-17T22:09:57.666Z,63.50
2023-01-17T22:12:26.374Z,63.34
2023-01-17T22:14:55.162Z,63.13
2023-01-17T22:17:23.758Z,63.07
2023-01-17T22:19:52.373Z,63.05
2023-01-17T22:22:20.920Z,63.12
2023-01-17T22:24:49.142Z,62.95
2023-01-17T22:27:17.477Z,63.03
2023-01-17T22:29:45.986Z,63.09
2023-01-17T22:32:14.351Z,62.97
2023-01-17T22:34:42.607Z,63.03
2023-01-17T22:37:10.899Z,62.90
2023-01-17T22:39:39.476Z,62.89
2023-01-17T22:42:07.876Z,62.91
2023-01-17T22:44:36.245Z,62.85
2023-01-17T22:47:04.635Z,62.81
2023-01-17T22:49:33.014Z,62.87
2023-01-17T22:52:02.520Z,62.95
2023-01-17T22:54:33.148Z,62.90
2023-01-17T22:57:04.291Z,62.98
2023-01-17T22:59:35.397Z,62.94
2023-01-17T23:02:04.849Z,62.97
2023-01-17T23:04:33.222Z,62.94
2023-01-17T23:07:04.361Z,63.02
2023-01-17T23:09:33.058Z,63.24
2023-01-17T23:12:01.347Z,63.51
2023-01-17T23:14:52.248Z,63.83
2023-01-17T23:17:42.257Z,63.87
2023-01-17T23:20:11.581Z,64.00
2023-01-17T23:22:39.941Z,64.14
2023-01-17T23:25:11.580Z,64.18
2023-01-17T23:28:04.547Z,64.29
2023-01-17T23:30:41.626Z,64.42
2023-01-17T23:33:13.320Z,64.62
2023-01-17T23:35:44.846Z,64.97
2023-01-17T23:38:34.302Z,65.36
2023-01-17T23:41:25.107Z,65.78
2023-01-17T23:43:57.799Z,66.10
2023-01-17T23:46:30.261Z,66.30
2023-01-17T23:48:58.482Z,66.56
2023-01-17T23:51:26.553Z,66.84
2023-01-17T23:54:05.535Z,66.82
2023-01-17T23:56:33.940Z,66.94
2023-01-17T23:59:02.119Z,66.98
